Time;durP1;ratioP1;P1;durP2;ratioP2;P2;SDS_P1;SDS_P2;PMS_P1;PMS_P2;Temp;Humidity;BMP_temperature;BMP_pressure;BME280_temperature;BME280_humidity;BME280_pressure;Samples;Min_cycle;Max_cycle;Signal;HPM_P1;HPM_P2
2023/02/19 00:01:57;;;;;;;2.40;2.20;;;;;;;;;;4538797;28;20139;-58
2023/02/19 00:04:13;;;;;;;2.17;1.95;;;;;;;;;;4523682;28;20532;-57
2023/02/19 00:06:24;;;;;;;2.30;2.10;;;;;;;;;;4522633;28;20392;-58
2023/02/19 00:08:35;;;;;;;2.20;2.00;;;;;;;;;;4539500;28;20132;-58
2023/02/19 00:10:45;;;;;;;2.20;2.00;;;;;;;;;;4525600;28;20537;-57
2023/02/19 00:12:56;;;;;;;1.65;1.55;;;;;;;;;;4525272;28;20021;-57
2023/02/19 00:15:06;;;;;;;1.58;1.48;;;;;;;;;;4525032;28;20500;-58
2023/02/19 00:17:16;;;;;;;1.75;1.65;;;;;;;;;;4524283;28;20055;-58
2023/02/19 00:19:27;;;;;;;1.80;1.70;;;;;;;;;;4523623;28;20049;-58
2023/02/19 00:21:37;;;;;;;1.80;1.70;;;;;;;;;;4525824;28;20037;-58
2023/02/19 00:23:51;;;;;;;2.00;1.80;;;;;;;;;;4524180;28;20041;-58
2023/02/19 00:26:02;;;;;;;1.70;1.60;;;;;;;;;;4526761;28;20025;-56
2023/02/19 00:28:13;;;;;;;2.08;1.92;;;;;;;;;;4524660;28;20540;-57
2023/02/19 00:30:23;;;;;;;2.03;1.90;;;;;;;;;;4530054;28;20045;-57
2023/02/19 00:32:33;;;;;;;1.60;1.50;;;;;;;;;;4528746;28;20107;-57
2023/02/19 00:34:44;;;;;;;2.30;2.10;;;;;;;;;;4527549;28;20094;-57
2023/02/19 00:36:54;;;;;;;2.20;2.00;;;;;;;;;;4529418;28;20335;-57
2023/02/19 00:39:06;;;;;;;2.20;2.00;;;;;;;;;;4528106;28;20032;-57
2023/02/19 00:41:20;;;;;;;2.17;1.98;;;;;;;;;;4528652;28;20987;-57
2023/02/19 00:43:30;;;;;;;2.00;1.90;;;;;;;;;;4527018;28;20156;-57
2023/02/19 00:45:41;;;;;;;1.85;1.75;;;;;;;;;;4528096;28;20060;-57
2023/02/19 00:47:51;;;;;;;1.90;1.80;;;;;;;;;;4539187;28;20087;-57
2023/02/19 00:50:02;;;;;;;1.73;1.63;;;;;;;;;;4528288;28;20041;-58
2023/02/19 00:52:12;;;;;;;1.85;1.73;;;;;;;;;;4527464;28;20116;-57
2023/02/19 00:54:23;;;;;;;2.03;1.90;;;;;;;;;;4526148;28;20033;-57
2023/02/19 00:56:33;;;;;;;1.75;1.65;;;;;;;;;;4530682;28;20048;-57
2023/02/19 00:58:43;;;;;;;1.85;1.75;;;;;;;;;;4525866;28;20045;-57
2023/02/19 01:00:54;;;;;;;1.75;1.65;;;;;;;;;;4534529;28;20794;-57
2023/02/19 01:03:04;;;;;;;2.03;1.83;;;;;;;;;;4528941;28;20052;-57
2023/02/19 01:05:14;;;;;;;2.00;1.80;;;;;;;;;;4512967;28;20038;-57
2023/02/19 01:07:25;;;;;;;1.75;1.65;;;;;;;;;;4529574;28;20037;-57
2023/02/19 01:09:35;;;;;;;1.98;1.77;;;;;;;;;;4528665;28;20071;-58
2023/02/19 01:11:45;;;;;;;1.85;1.75;;;;;;;;;;4530523;28;20041;-57
2023/02/19 01:13:56;;;;;;;1.70;1.60;;;;;;;;;;4527109;28;20088;-56
2023/02/19 01:16:07;;;;;;;2.17;1.80;;;;;;;;;;4527061;28;20037;-57
2023/02/19 01:18:17;;;;;;;1.70;1.60;;;;;;;;;;4534042;28;20040;-57
2023/02/19 01:20:27;;;;;;;2.35;2.10;;;;;;;;;;4527011;28;20037;-57
2023/02/19 01:22:38;;;;;;;2.30;2.10;;;;;;;;;;4529510;28;20037;-57
2023/02/19 01:24:49;;;;;;;2.60;2.40;;;;;;;;;;4527619;28;20190;-57
2023/02/19 01:27:00;;;;;;;2.60;2.40;;;;;;;;;;4529205;28;20123;-57
2023/02/19 01:29:10;;;;;;;2.70;2.50;;;;;;;;;;4527510;28;20033;-57
2023/02/19 01:31:21;;;;;;;2.88;2.67;;;;;;;;;;4527919;28;20093;-57
2023/02/19 01:33:33;;;;;;;2.95;2.75;;;;;;;;;;4527402;28;20065;-57
2023/02/19 01:35:44;;;;;;;2.95;2.75;;;;;;;;;;4530744;28;20042;-57
2023/02/19 01:37:54;;;;;;;3.50;3.20;;;;;;;;;;4525759;28;20038;-57
2023/02/19 01:40:05;;;;;;;3.42;3.13;;;;;;;;;;4527765;28;20042;-56
2023/02/19 01:42:18;;;;;;;3.75;3.35;;;;;;;;;;4526832;28;20053;-57
2023/02/19 01:44:28;;;;;;;4.10;3.80;;;;;;;;;;4527076;28;20037;-57
2023/02/19 01:46:39;;;;;;;3.80;3.50;;;;;;;;;;4526561;28;20481;-57
2023/02/19 01:48:50;;;;;;;3.90;3.60;;;;;;;;;;4526050;28;20038;-56
2023/02/19 01:51:09;;;;;;;4.03;3.72;;;;;;;;;;4527568;28;20059;-57
2023/02/19 01:53:22;;;;;;;3.97;3.67;;;;;;;;;;4527812;28;20694;-57
2023/02/19 01:55:33;;;;;;;4.10;3.80;;;;;;;;;;4534967;28;21329;-57
2023/02/19 01:57:45;;;;;;;4.18;3.78;;;;;;;;;;4526758;28;20556;-57
2023/02/19 02:00:01;;;;;;;4.00;3.70;;;;;;;;;;4535800;28;20053;-57
2023/02/19 02:02:27;;;;;;;3.35;3.08;;;;;;;;;;4522144;28;20040;-57
2023/02/19 02:04:37;;;;;;;3.70;3.40;;;;;;;;;;4534763;28;20867;-57
2023/02/19 02:06:52;;;;;;;4.10;3.80;;;;;;;;;;4527133;28;20123;-57
2023/02/19 02:11:31;;;;;;;3.50;3.20;;;;;;;;;;4534763;28;20036;-56
2023/02/19 02:13:41;;;;;;;2.70;2.50;;;;;;;;;;4528722;28;20053;-57
2023/02/19 02:16:07;;;;;;;2.60;2.40;;;;;;;;;;4528806;28;20106;-58
2023/02/19 02:18:33;;;;;;;2.08;1.98;;;;;;;;;;4526838;28;20072;-57
2023/02/19 02:21:01;;;;;;;1.40;1.30;;;;;;;;;;4524492;28;20072;-56
2023/02/19 02:23:17;;;;;;;1.50;1.40;;;;;;;;;;4525801;28;20037;-57
2023/02/19 02:25:48;;;;;;;3.72;3.42;;;;;;;;;;4524746;28;20033;-58
2023/02/19 02:28:04;;;;;;;3.92;3.60;;;;;;;;;;4528345;28;20139;-57
2023/02/19 02:30:25;;;;;;;4.07;3.78;;;;;;;;;;4529323;28;20037;-57
2023/02/19 02:32:52;;;;;;;4.45;3.95;;;;;;;;;;4528915;28;20043;-57
2023/02/19 02:35:09;;;;;;;4.35;3.97;;;;;;;;;;4535156;28;20040;-56
2023/02/19 02:37:22;;;;;;;4.43;4.05;;;;;;;;;;4535038;28;20037;-57
2023/02/19 02:39:33;;;;;;;3.95;3.65;;;;;;;;;;4524651;28;20033;-57
2023/02/19 02:41:48;;;;;;;4.35;3.95;;;;;;;;;;4529948;28;20048;-56
2023/02/19 02:43:58;;;;;;;4.30;3.90;;;;;;;;;;4540980;28;20033;-56
2023/02/19 02:46:14;;;;;;;4.32;3.92;;;;;;;;;;4541597;28;20044;-56
2023/02/19 02:48:28;;;;;;;4.60;4.20;;;;;;;;;;4534948;28;20044;-56
2023/02/19 02:50:48;;;;;;;4.45;4.05;;;;;;;;;;4524749;28;20068;-56
2023/02/19 02:55:31;;;;;;;3.72;3.42;;;;;;;;;;4527523;28;20136;-56
2023/02/19 02:57:42;;;;;;;3.53;3.22;;;;;;;;;;4524859;28;20116;-56
2023/02/19 02:59:52;;;;;;;3.05;2.85;;;;;;;;;;4530677;28;20996;-56
2023/02/19 03:02:17;;;;;;;3.50;3.20;;;;;;;;;;4535038;28;20037;-56
2023/02/19 03:04:33;;;;;;;3.53;3.22;;;;;;;;;;4537545;28;20055;-58
2023/02/19 03:06:44;;;;;;;;;;;;;;;;;;4534597;28;20685;-56
2023/02/19 03:09:05;;;;;;;3.00;2.80;;;;;;;;;;4528730;28;19970;-56
2023/02/19 03:21:19;;;;;;;3.08;2.78;;;;;;;;;;4526634;28;20041;-56
2023/02/19 03:26:04;;;;;;;3.00;2.80;;;;;;;;;;4527174;28;20512;-57
2023/02/19 03:30:57;;;;;;;2.75;2.55;;;;;;;;;;4527480;28;20037;-56
2023/02/19 03:33:12;;;;;;;2.55;2.35;;;;;;;;;;4526662;28;20481;-56
2023/02/19 03:35:25;;;;;;;2.60;2.40;;;;;;;;;;4523315;28;20042;-56
2023/02/19 03:37:40;;;;;;;2.50;2.30;;;;;;;;;;4533722;28;20079;-56
2023/02/19 03:39:51;;;;;;;2.33;2.13;;;;;;;;;;4525790;28;20600;-56
2023/02/19 03:42:22;;;;;;;2.50;2.30;;;;;;;;;;4527863;28;20096;-57
2023/02/19 03:44:39;;;;;;;2.10;1.90;;;;;;;;;;4523427;28;20041;-56
2023/02/19 03:46:55;;;;;;;2.28;2.08;;;;;;;;;;4534160;28;20068;-57
2023/02/19 03:49:17;;;;;;;2.20;2.00;;;;;;;;;;4534346;28;20666;-56
2023/02/19 03:51:38;;;;;;;2.42;2.13;;;;;;;;;;4517615;28;20597;-57
2023/02/19 03:54:12;;;;;;;2.10;1.90;;;;;;;;;;4525809;28;20124;-56
2023/02/19 03:56:41;;;;;;;1.67;1.58;;;;;;;;;;4512591;28;20065;-56
2023/02/19 03:58:55;;;;;;;2.00;1.80;;;;;;;;;;4533724;28;20159;-56
2023/02/19 04:01:08;;;;;;;1.70;1.50;;;;;;;;;;4534017;28;20132;-57
2023/02/19 04:03:25;;;;;;;1.85;1.67;;;;;;;;;;4536405;28;20343;-56
2023/02/19 04:05:38;;;;;;;1.60;1.50;;;;;;;;;;4529142;28;20037;-56
2023/02/19 04:07:50;;;;;;;1.73;1.50;;;;;;;;;;4537923;28;20037;-55
2023/02/19 04:10:06;;;;;;;1.50;1.40;;;;;;;;;;4526246;28;20049;-56
2023/02/19 04:12:17;;;;;;;1.38;1.27;;;;;;;;;;4537620;28;20033;-56
2023/02/19 04:14:36;;;;;;;1.58;1.40;;;;;;;;;;4526405;28;20029;-57
2023/02/19 04:16:50;;;;;;;1.80;1.65;;;;;;;;;;4528811;28;20626;-56
2023/02/19 04:19:06;;;;;;;1.58;1.48;;;;;;;;;;4528240;28;20073;-56
2023/02/19 04:21:18;;;;;;;1.60;1.50;;;;;;;;;;4522287;28;20088;-56
2023/02/19 04:23:32;;;;;;;1.63;1.48;;;;;;;;;;4530638;28;20170;-55
2023/02/19 04:25:46;;;;;;;1.58;1.30;;;;;;;;;;4526628;28;20045;-56
2023/02/19 04:27:57;;;;;;;1.50;1.40;;;;;;;;;;4532122;28;20136;-56
2023/02/19 04:30:10;;;;;;;1.38;1.25;;;;;;;;;;4544487;28;20147;-56
2023/02/19 04:32:20;;;;;;;1.13;1.08;;;;;;;;;;4529607;28;20081;-56
2023/02/19 04:34:30;;;;;;;1.05;1.00;;;;;;;;;;4527532;28;20841;-56
2023/02/19 04:36:41;;;;;;;1.10;1.00;;;;;;;;;;4528457;28;20021;-56
2023/02/19 04:38:51;;;;;;;1.20;1.10;;;;;;;;;;4527434;28;20037;-56
2023/02/19 04:41:01;;;;;;;1.13;1.08;;;;;;;;;;4529058;28;20068;-57
2023/02/19 04:43:12;;;;;;;1.25;1.15;;;;;;;;;;4528344;28;20104;-57
2023/02/19 04:45:22;;;;;;;1.20;1.10;;;;;;;;;;4529279;28;20087;-56
2023/02/19 04:47:32;;;;;;;1.20;1.10;;;;;;;;;;4528653;28;20453;-56
2023/02/19 04:49:43;;;;;;;0.95;0.95;;;;;;;;;;4530029;28;20029;-56
2023/02/19 04:51:53;;;;;;;1.35;1.23;;;;;;;;;;4528889;28;20121;-56
2023/02/19 04:54:04;;;;;;;1.23;1.08;;;;;;;;;;4527846;28;20025;-56
2023/02/19 04:56:15;;;;;;;1.20;1.10;;;;;;;;;;4527846;28;20087;-56
2023/02/19 04:58:25;;;;;;;1.27;1.15;;;;;;;;;;4528943;28;20040;-57
2023/02/19 05:00:36;;;;;;;1.48;1.13;;;;;;;;;;4528304;28;20049;-57
2023/02/19 05:02:46;;;;;;;1.60;1.30;;;;;;;;;;4527232;28;20045;-56
2023/02/19 05:04:56;;;;;;;1.48;1.10;;;;;;;;;;4529360;28;20060;-58
2023/02/19 05:07:07;;;;;;;1.42;1.10;;;;;;;;;;4528321;28;20060;-57
2023/02/19 05:09:17;;;;;;;1.20;1.10;;;;;;;;;;4526957;28;20033;-56
2023/02/19 05:11:27;;;;;;;1.20;1.10;;;;;;;;;;4527238;28;20351;-56
2023/02/19 05:13:38;;;;;;;1.30;1.10;;;;;;;;;;4529617;28;20540;-57
2023/02/19 05:15:55;;;;;;;1.20;1.10;;;;;;;;;;4527802;28;20041;-56
2023/02/19 05:18:05;;;;;;;1.10;1.00;;;;;;;;;;4527245;28;20037;-57
2023/02/19 05:20:15;;;;;;;0.73;0.73;;;;;;;;;;4526367;28;20596;-57
2023/02/19 05:22:27;;;;;;;1.15;1.05;;;;;;;;;;4529857;28;20046;-56
2023/02/19 05:24:38;;;;;;;1.02;0.93;;;;;;;;;;4528310;28;20523;-57
2023/02/19 05:26:48;;;;;;;1.10;1.00;;;;;;;;;;4527968;28;20056;-57
2023/02/19 05:28:58;;;;;;;1.15;1.08;;;;;;;;;;4530669;28;20037;-57
2023/02/19 05:31:10;;;;;;;1.23;1.13;;;;;;;;;;4527389;28;20091;-57
2023/02/19 05:33:21;;;;;;;1.10;0.98;;;;;;;;;;4527527;28;20041;-57
2023/02/19 05:35:31;;;;;;;1.15;1.00;;;;;;;;;;4528909;28;20120;-57
2023/02/19 05:37:42;;;;;;;0.90;0.90;;;;;;;;;;4525897;28;20041;-57
2023/02/19 05:39:52;;;;;;;1.20;1.10;;;;;;;;;;4528032;28;20073;-57
2023/02/19 05:42:02;;;;;;;1.25;1.10;;;;;;;;;;4529160;28;20049;-56
2023/02/19 05:44:13;;;;;;;1.10;1.00;;;;;;;;;;4529500;28;20140;-56
2023/02/19 05:46:24;;;;;;;0.95;0.95;;;;;;;;;;4527007;28;20076;-57
2023/02/19 05:48:35;;;;;;;1.17;1.00;;;;;;;;;;4526594;28;20624;-57
2023/02/19 05:50:45;;;;;;;1.10;1.00;;;;;;;;;;4535328;28;20381;-57
2023/02/19 05:52:55;;;;;;;1.05;0.95;;;;;;;;;;4526372;28;20037;-56
2023/02/19 05:55:06;;;;;;;1.02;0.93;;;;;;;;;;4529152;28;20080;-57
2023/02/19 05:57:16;;;;;;;0.95;0.95;;;;;;;;;;4526805;28;20048;-57
2023/02/19 05:59:26;;;;;;;1.08;1.00;;;;;;;;;;4526814;28;20061;-57
2023/02/19 06:01:37;;;;;;;1.10;1.02;;;;;;;;;;4527043;28;20042;-57
2023/02/19 06:03:47;;;;;;;1.02;1.00;;;;;;;;;;4525663;28;20037;-56
2023/02/19 06:05:57;;;;;;;1.13;1.00;;;;;;;;;;4526345;28;20029;-56
2023/02/19 06:08:09;;;;;;;0.90;0.90;;;;;;;;;;4530093;28;20044;-56
2023/02/19 06:10:19;;;;;;;1.05;1.00;;;;;;;;;;4526527;28;20505;-56
2023/02/19 06:12:30;;;;;;;1.20;1.10;;;;;;;;;;4527386;28;20103;-56
2023/02/19 06:14:40;;;;;;;1.15;1.05;;;;;;;;;;4526610;28;20041;-56
2023/02/19 06:16:50;;;;;;;0.98;0.98;;;;;;;;;;4529639;28;20041;-56
2023/02/19 06:19:02;;;;;;;0.95;0.90;;;;;;;;;;4527007;28;20033;-56
2023/02/19 06:21:13;;;;;;;0.88;0.80;;;;;;;;;;4526804;28;20581;-57
2023/02/19 06:23:26;;;;;;;1.10;1.00;;;;;;;;;;4528025;28;20048;-57
2023/02/19 06:25:36;;;;;;;1.20;1.00;;;;;;;;;;4526318;28;20037;-57
2023/02/19 06:27:46;;;;;;;1.00;0.90;;;;;;;;;;4526033;28;20033;-58
2023/02/19 06:29:57;;;;;;;0.90;0.80;;;;;;;;;;4527881;28;20107;-57
2023/02/19 06:32:07;;;;;;;1.00;0.90;;;;;;;;;;4527374;28;20485;-57
2023/02/19 06:34:17;;;;;;;1.00;0.95;;;;;;;;;;4527306;28;20045;-57
2023/02/19 06:36:28;;;;;;;1.00;0.90;;;;;;;;;;4512880;28;20319;-57
2023/02/19 06:38:38;;;;;;;1.05;0.90;;;;;;;;;;4526528;28;20120;-57
2023/02/19 06:40:48;;;;;;;1.20;1.10;;;;;;;;;;4527817;28;20132;-57
2023/02/19 06:42:59;;;;;;;1.20;1.10;;;;;;;;;;4532014;28;20421;-58
2023/02/19 06:45:09;;;;;;;1.20;1.10;;;;;;;;;;4527882;28;20045;-58
2023/02/19 06:47:20;;;;;;;1.30;1.20;;;;;;;;;;4526626;28;20022;-58
2023/02/19 06:49:30;;;;;;;1.10;1.00;;;;;;;;;;4527910;28;20056;-57
2023/02/19 06:51:41;;;;;;;1.25;1.10;;;;;;;;;;4525899;28;20040;-57
2023/02/19 06:53:51;;;;;;;1.08;1.00;;;;;;;;;;4526044;28;20497;-58
2023/02/19 06:56:04;;;;;;;1.02;1.02;;;;;;;;;;4526820;28;20039;-58
2023/02/19 06:58:14;;;;;;;1.23;1.13;;;;;;;;;;4533700;28;20044;-58
2023/02/19 07:00:24;;;;;;;0.93;0.93;;;;;;;;;;4525398;28;20045;-58
2023/02/19 07:02:34;;;;;;;1.30;1.20;;;;;;;;;;4525038;28;20466;-58
2023/02/19 07:04:45;;;;;;;1.20;1.10;;;;;;;;;;4525688;28;20041;-58
2023/02/19 07:06:55;;;;;;;1.25;1.10;;;;;;;;;;4525959;28;20032;-58
2023/02/19 07:09:06;;;;;;;1.20;1.10;;;;;;;;;;4524225;28;20144;-57
2023/02/19 07:11:17;;;;;;;1.25;1.15;;;;;;;;;;4526299;28;20747;-56
2023/02/19 07:13:27;;;;;;;1.38;1.15;;;;;;;;;;4525610;28;20650;-57
2023/02/19 07:15:38;;;;;;;1.02;1.02;;;;;;;;;;4525814;28;20110;-58
2023/02/19 07:17:48;;;;;;;1.10;1.00;;;;;;;;;;4525388;28;20029;-62
2023/02/19 07:19:58;;;;;;;1.15;1.00;;;;;;;;;;4524720;28;20474;-58
2023/02/19 07:22:09;;;;;;;1.00;0.90;;;;;;;;;;4524157;28;20438;-61
2023/02/19 07:24:20;;;;;;;0.90;0.90;;;;;;;;;;4525886;28;20032;-60
2023/02/19 07:26:30;;;;;;;1.10;1.00;;;;;;;;;;4525716;28;20052;-57
2023/02/19 07:28:42;;;;;;;0.88;0.88;;;;;;;;;;4526807;28;20067;-61
2023/02/19 07:30:52;;;;;;;0.77;0.77;;;;;;;;;;4528310;28;20063;-59
2023/02/19 07:33:03;;;;;;;1.17;0.90;;;;;;;;;;4526893;28;20496;-58
2023/02/19 07:35:13;;;;;;;1.15;0.75;;;;;;;;;;4529624;28;20044;-58
2023/02/19 07:37:23;;;;;;;1.10;0.88;;;;;;;;;;4526297;28;20034;-60
2023/02/19 07:39:34;;;;;;;0.80;0.80;;;;;;;;;;4526275;28;20041;-57
2023/02/19 07:41:44;;;;;;;0.77;0.75;;;;;;;;;;4527434;28;20490;-58
2023/02/19 07:44:05;;;;;;;0.70;0.70;;;;;;;;;;4528412;28;20037;-58
2023/02/19 07:46:15;;;;;;;0.70;0.70;;;;;;;;;;4526647;28;20029;-57
2023/02/19 07:48:26;;;;;;;0.63;0.63;;;;;;;;;;4526676;28;20461;-58
2023/02/19 07:50:36;;;;;;;1.05;0.70;;;;;;;;;;4526305;28;20045;-57
2023/02/19 07:52:46;;;;;;;0.63;0.63;;;;;;;;;;4523600;28;20371;-57
2023/02/19 07:54:56;;;;;;;0.70;0.70;;;;;;;;;;4525562;28;20386;-57
2023/02/19 07:57:07;;;;;;;0.90;0.60;;;;;;;;;;4524524;28;20046;-58
2023/02/19 07:59:20;;;;;;;0.70;0.70;;;;;;;;;;4523850;28;20072;-58
2023/02/19 08:03:59;;;;;;;0.63;0.63;;;;;;;;;;4525566;28;20037;-57
2023/02/19 08:06:10;;;;;;;0.75;0.60;;;;;;;;;;4526159;28;20037;-58
2023/02/19 08:08:21;;;;;;;0.70;0.70;;;;;;;;;;4526184;28;20077;-58
2023/02/19 08:13:18;;;;;;;0.68;0.68;;;;;;;;;;4529835;28;20482;-57
2023/02/19 08:15:28;;;;;;;0.63;0.63;;;;;;;;;;4525756;28;20042;-57
2023/02/19 08:17:38;;;;;;;0.82;0.77;;;;;;;;;;4527377;28;20478;-57
2023/02/19 08:19:49;;;;;;;0.60;0.60;;;;;;;;;;4528285;28;20044;-57
2023/02/19 08:21:59;;;;;;;0.60;0.60;;;;;;;;;;4526273;28;20524;-58
2023/02/19 08:24:09;;;;;;;0.80;0.70;;;;;;;;;;4525982;28;20446;-57
2023/02/19 08:26:20;;;;;;;0.82;0.80;;;;;;;;;;4525649;28;20025;-58
2023/02/19 08:28:30;;;;;;;0.22;0.22;;;;;;;;;;4528658;28;20047;-57
2023/02/19 08:30:44;;;;;;;0.20;0.20;;;;;;;;;;4534638;28;20609;-58
2023/02/19 08:32:54;;;;;;;0.20;0.20;;;;;;;;;;4523962;28;20079;-58
2023/02/19 08:35:05;;;;;;;0.20;0.20;;;;;;;;;;4527154;28;20125;-57
2023/02/19 08:37:16;;;;;;;0.13;0.13;;;;;;;;;;4523658;28;20029;-58
2023/02/19 08:39:26;;;;;;;0.10;0.10;;;;;;;;;;4525374;28;20169;-58
2023/02/19 08:41:36;;;;;;;1.55;0.20;;;;;;;;;;4525498;28;20119;-58
2023/02/19 08:43:47;;;;;;;0.10;0.10;;;;;;;;;;4527311;28;20033;-58
2023/02/19 08:45:57;;;;;;;0.20;0.20;;;;;;;;;;4527093;28;20625;-59
2023/02/19 08:48:08;;;;;;;0.10;0.10;;;;;;;;;;4524851;28;20506;-58
2023/02/19 08:50:18;;;;;;;0.10;0.10;;;;;;;;;;4529025;28;20203;-58
2023/02/19 08:52:28;;;;;;;0.10;0.10;;;;;;;;;;4527599;28;20065;-59
2023/02/19 08:54:39;;;;;;;0.20;0.20;;;;;;;;;;4529683;28;20048;-58
2023/02/19 08:56:49;;;;;;;0.10;0.10;;;;;;;;;;4528334;28;20090;-57
2023/02/19 08:58:59;;;;;;;0.10;0.10;;;;;;;;;;4528364;28;20041;-56
2023/02/19 09:01:15;;;;;;;0.10;0.10;;;;;;;;;;4526776;28;20628;-57
2023/02/19 09:03:25;;;;;;;0.20;0.20;;;;;;;;;;4528574;28;20148;-56
2023/02/19 09:05:36;;;;;;;0.10;0.10;;;;;;;;;;4531634;28;20037;-56
2023/02/19 09:07:46;;;;;;;0.10;0.10;;;;;;;;;;4527907;28;20088;-56
2023/02/19 09:09:57;;;;;;;0.10;0.10;;;;;;;;;;4528021;28;20098;-56
2023/02/19 09:12:08;;;;;;;0.10;0.10;;;;;;;;;;4530100;28;20030;-56
2023/02/19 09:14:18;;;;;;;0.10;0.10;;;;;;;;;;4526972;28;20569;-56
2023/02/19 09:16:29;;;;;;;0.50;0.10;;;;;;;;;;4528355;28;20128;-57
2023/02/19 09:18:39;;;;;;;0.10;0.10;;;;;;;;;;4526680;28;20041;-57
2023/02/19 09:20:50;;;;;;;0.10;0.10;;;;;;;;;;4527945;28;20203;-58
2023/02/19 09:23:00;;;;;;;0.10;0.10;;;;;;;;;;4527938;28;20562;-58
2023/02/19 09:25:10;;;;;;;0.10;0.10;;;;;;;;;;4527122;28;20029;-57
2023/02/19 09:27:21;;;;;;;0.25;0.20;;;;;;;;;;4535960;28;20083;-57
2023/02/19 09:29:33;;;;;;;0.20;0.10;;;;;;;;;;4529538;28;20037;-58
2023/02/19 09:31:43;;;;;;;0.00;0.00;;;;;;;;;;4528965;28;20063;-56
2023/02/19 09:33:54;;;;;;;0.20;0.20;;;;;;;;;;4528189;28;20483;-57
2023/02/19 09:36:04;;;;;;;0.10;0.10;;;;;;;;;;4527925;28;20535;-57
2023/02/19 09:38:14;;;;;;;0.13;0.13;;;;;;;;;;4526454;28;20959;-55
2023/02/19 09:40:25;;;;;;;0.10;0.10;;;;;;;;;;4529840;28;20076;-56
2023/02/19 09:42:38;;;;;;;0.20;0.10;;;;;;;;;;4529532;28;20068;-57
2023/02/19 09:44:50;;;;;;;0.10;0.10;;;;;;;;;;4528457;28;20052;-57
2023/02/19 09:47:02;;;;;;;0.20;0.20;;;;;;;;;;4527858;28;20839;-57
2023/02/19 09:49:14;;;;;;;0.10;0.10;;;;;;;;;;4527433;28;20044;-57
2023/02/19 09:51:26;;;;;;;0.20;0.20;;;;;;;;;;4528644;28;20029;-57
2023/02/19 09:53:43;;;;;;;0.10;0.10;;;;;;;;;;4526699;28;20042;-56
2023/02/19 09:55:54;;;;;;;0.10;0.10;;;;;;;;;;4526699;28;20041;-57
2023/02/19 09:58:16;;;;;;;0.17;0.10;;;;;;;;;;4525852;28;20033;-57
2023/02/19 10:00:32;;;;;;;0.20;0.20;;;;;;;;;;4527942;28;20051;-57
2023/02/19 10:02:42;;;;;;;0.10;0.10;;;;;;;;;;4517914;28;20139;-57
2023/02/19 10:04:53;;;;;;;0.20;0.20;;;;;;;;;;4528938;28;20080;-57
2023/02/19 10:07:10;;;;;;;0.20;0.20;;;;;;;;;;4529995;28;20063;-59
2023/02/19 10:09:22;;;;;;;0.10;0.10;;;;;;;;;;4527090;28;21264;-60
2023/02/19 10:11:33;;;;;;;0.10;0.10;;;;;;;;;;4512807;28;20037;-59
2023/02/19 10:13:46;;;;;;;0.10;0.10;;;;;;;;;;4510180;28;20494;-57
2023/02/19 10:15:57;;;;;;;0.15;0.15;;;;;;;;;;4527057;28;20096;-59
2023/02/19 10:18:07;;;;;;;0.05;0.05;;;;;;;;;;4526435;28;20048;-56
2023/02/19 10:20:21;;;;;;;0.10;0.10;;;;;;;;;;4526829;28;20034;-57
2023/02/19 10:22:32;;;;;;;0.10;0.10;;;;;;;;;;4526205;28;20781;-59
2023/02/19 10:24:43;;;;;;;0.00;0.00;;;;;;;;;;4535989;28;20044;-56
2023/02/19 10:26:53;;;;;;;0.10;0.10;;;;;;;;;;4529027;28;20409;-58
2023/02/19 10:29:04;;;;;;;0.10;0.10;;;;;;;;;;4525351;28;20111;-57
2023/02/19 10:31:22;;;;;;;0.13;0.10;;;;;;;;;;4527510;28;20037;-58
2023/02/19 10:33:46;;;;;;;0.10;0.10;;;;;;;;;;4527242;28;20033;-58
2023/02/19 10:35:58;;;;;;;0.10;0.10;;;;;;;;;;4529060;28;20041;-56
2023/02/19 10:38:15;;;;;;;0.17;0.17;;;;;;;;;;4529195;22;20611;-60
2023/02/19 10:40:26;;;;;;;0.20;0.20;;;;;;;;;;4521638;28;20866;-56
2023/02/19 10:42:44;;;;;;;0.20;0.20;;;;;;;;;;4520699;28;20033;-57
2023/02/19 10:44:57;;;;;;;0.20;0.20;;;;;;;;;;4518912;28;20034;-57
2023/02/19 10:47:14;;;;;;;0.13;0.13;;;;;;;;;;4521939;28;20824;-58
2023/02/19 10:49:27;;;;;;;0.20;0.20;;;;;;;;;;4523100;28;20132;-56
2023/02/19 10:51:39;;;;;;;0.10;0.10;;;;;;;;;;4504262;28;20145;-56
2023/02/19 10:53:51;;;;;;;0.20;0.20;;;;;;;;;;4522469;28;20039;-58
2023/02/19 10:56:06;;;;;;;0.68;0.68;;;;;;;;;;4519181;28;20071;-60
2023/02/19 10:58:23;;;;;;;1.95;1.80;;;;;;;;;;4520000;28;20038;-56
2023/02/19 11:00:34;;;;;;;0.30;0.30;;;;;;;;;;4523354;28;20818;-56
2023/02/19 11:02:45;;;;;;;0.55;0.30;;;;;;;;;;4520727;28;20033;-57
2023/02/19 11:05:14;;;;;;;0.10;0.10;;;;;;;;;;4518879;28;20030;-57
2023/02/19 11:07:25;;;;;;;0.15;0.15;;;;;;;;;;4516130;28;20034;-56
2023/02/19 11:09:54;;;;;;;0.15;0.10;;;;;;;;;;4518548;28;20033;-56
2023/02/19 11:12:04;;;;;;;0.10;0.10;;;;;;;;;;4517929;28;20140;-59
2023/02/19 11:14:18;;;;;;;0.10;0.10;;;;;;;;;;4518862;28;20144;-57
2023/02/19 11:16:45;;;;;;;0.20;0.20;;;;;;;;;;4519159;28;20521;-57
2023/02/19 11:18:56;;;;;;;0.20;0.20;;;;;;;;;;4518184;28;20143;-57
2023/02/19 11:21:06;;;;;;;0.10;0.10;;;;;;;;;;4518489;28;20091;-56
2023/02/19 11:23:18;;;;;;;0.30;0.30;;;;;;;;;;4485955;28;20066;-56
2023/02/19 11:25:29;;;;;;;0.20;0.20;;;;;;;;;;4502174;28;20848;-56
2023/02/19 11:28:12;;;;;;;0.20;0.20;;;;;;;;;;4483451;28;21187;-57
2023/02/19 11:30:29;;;;;;;0.20;0.20;;;;;;;;;;4451403;28;20114;-58
2023/02/19 11:32:39;;;;;;;0.20;0.20;;;;;;;;;;4515253;28;20049;-59
2023/02/19 11:34:50;;;;;;;0.20;0.20;;;;;;;;;;4517952;28;20052;-58
2023/02/19 11:37:16;;;;;;;0.60;0.20;;;;;;;;;;4500435;28;20400;-59
2023/02/19 11:39:29;;;;;;;0.30;0.30;;;;;;;;;;4500477;28;20124;-59
2023/02/19 11:41:49;;;;;;;0.20;0.20;;;;;;;;;;4517954;28;21007;-59
2023/02/19 11:44:32;;;;;;;0.20;0.20;;;;;;;;;;4518680;28;20598;-58
2023/02/19 11:46:56;;;;;;;0.20;0.20;;;;;;;;;;4474513;28;20615;-59
2023/02/19 11:49:16;;;;;;;0.32;0.30;;;;;;;;;;4519565;28;20033;-59
2023/02/19 11:51:32;;;;;;;0.30;0.30;;;;;;;;;;4518609;28;20120;-59
2023/02/19 11:54:00;;;;;;;0.20;0.20;;;;;;;;;;4517467;28;20037;-58
2023/02/19 11:56:13;;;;;;;0.63;0.30;;;;;;;;;;4518853;28;20095;-59
2023/02/19 11:58:36;;;;;;;0.30;0.30;;;;;;;;;;4516287;28;20092;-58
2023/02/19 12:00:50;;;;;;;0.35;0.30;;;;;;;;;;4515238;28;20075;-58
2023/02/19 12:03:09;;;;;;;0.20;0.20;;;;;;;;;;4476816;28;20038;-57
2023/02/19 12:05:41;;;;;;;0.30;0.30;;;;;;;;;;4518652;28;20037;-56
2023/02/19 12:07:52;;;;;;;0.30;0.30;;;;;;;;;;4518748;28;20044;-58
2023/02/19 12:10:10;;;;;;;0.30;0.30;;;;;;;;;;4518553;28;20036;-57
2023/02/19 12:12:27;;;;;;;0.40;0.40;;;;;;;;;;4516988;28;20025;-61
2023/02/19 12:14:46;;;;;;;0.32;0.30;;;;;;;;;;4500782;28;20037;-61
2023/02/19 12:17:15;;;;;;;0.30;0.30;;;;;;;;;;4500201;28;21026;-61
2023/02/19 12:19:43;;;;;;;0.50;0.50;;;;;;;;;;4517818;28;20045;-57
2023/02/19 12:21:53;;;;;;;;;;;;;;;;;;4518628;28;20614;-58
2023/02/19 12:24:22;;;;;;;0.40;0.40;;;;;;;;;;4501562;28;20410;-57
2023/02/19 12:26:44;;;;;;;0.60;0.60;;;;;;;;;;4520539;28;20072;-61
2023/02/19 12:28:59;;;;;;;0.40;0.40;;;;;;;;;;4502804;28;20030;-60
2023/02/19 12:31:17;;;;;;;0.40;0.40;;;;;;;;;;4521744;28;20029;-61
2023/02/19 12:33:46;;;;;;;0.52;0.45;;;;;;;;;;4521500;28;20037;-60
2023/02/19 12:36:15;;;;;;;0.50;0.50;;;;;;;;;;4503822;28;20069;-61
2023/02/19 12:38:28;;;;;;;0.50;0.50;;;;;;;;;;4519578;28;20041;-61
2023/02/19 12:40:39;;;;;;;0.40;0.40;;;;;;;;;;4519691;28;20049;-60
2023/02/19 12:42:52;;;;;;;0.50;0.50;;;;;;;;;;4521125;28;20350;-60
2023/02/19 12:45:14;;;;;;;0.55;0.55;;;;;;;;;;4476239;28;20046;-60
2023/02/19 12:47:28;;;;;;;0.65;0.65;;;;;;;;;;4504602;28;20037;-61
2023/02/19 12:49:41;;;;;;;0.50;0.50;;;;;;;;;;4502214;28;20080;-58
2023/02/19 12:51:55;;;;;;;0.50;0.50;;;;;;;;;;4486189;28;21024;-61
2023/02/19 12:54:15;;;;;;;0.50;0.50;;;;;;;;;;4521615;28;20566;-59
2023/02/19 12:56:34;;;;;;;0.50;0.50;;;;;;;;;;4503217;28;20033;-61
2023/02/19 12:58:49;;;;;;;0.30;0.30;;;;;;;;;;4487846;28;20824;-60
2023/02/19 13:01:00;;;;;;;0.40;0.40;;;;;;;;;;4518938;28;20026;-59
2023/02/19 13:03:19;;;;;;;0.40;0.40;;;;;;;;;;4486766;28;20050;-60
2023/02/19 13:05:42;;;;;;;0.50;0.50;;;;;;;;;;4520274;28;20033;-59
2023/02/19 13:08:03;;;;;;;0.60;0.60;;;;;;;;;;4517901;28;20119;-60
2023/02/19 13:10:33;;;;;;;0.70;0.70;;;;;;;;;;4502076;28;20054;-59
2023/02/19 13:12:45;;;;;;;0.50;0.50;;;;;;;;;;4520301;28;20033;-60
2023/02/19 13:15:21;;;;;;;0.50;0.50;;;;;;;;;;4503285;28;20148;-60
2023/02/19 13:17:42;;;;;;;0.60;0.60;;;;;;;;;;4454279;28;20042;-59
2023/02/19 13:19:57;;;;;;;0.50;0.50;;;;;;;;;;4502558;28;20125;-61
2023/02/19 13:24:46;;;;;;;0.50;0.50;;;;;;;;;;4519544;28;20060;-59
2023/02/19 13:27:01;;;;;;;0.57;0.57;;;;;;;;;;4499530;28;20036;-60
2023/02/19 13:29:15;;;;;;;0.60;0.50;;;;;;;;;;4520882;28;20563;-59
2023/02/19 13:31:28;;;;;;;0.52;0.52;;;;;;;;;;4501633;28;20863;-60
2023/02/19 13:33:46;;;;;;;0.50;0.50;;;;;;;;;;4500544;28;20029;-59
2023/02/19 13:36:04;;;;;;;0.50;0.50;;;;;;;;;;4517690;28;20041;-60
2023/02/19 13:38:15;;;;;;;0.70;0.70;;;;;;;;;;4501557;28;20038;-60
2023/02/19 13:40:49;;;;;;;0.50;0.50;;;;;;;;;;4504034;28;20548;-60
2023/02/19 13:43:00;;;;;;;0.40;0.40;;;;;;;;;;4508309;28;20755;-60
2023/02/19 13:45:19;;;;;;;0.40;0.40;;;;;;;;;;4519561;28;20169;-60
2023/02/19 13:47:49;;;;;;;0.40;0.40;;;;;;;;;;4502249;28;20034;-59
2023/02/19 13:50:05;;;;;;;0.38;0.38;;;;;;;;;;4518450;28;20688;-58